Time;durP1;ratioP1;P1;durP2;ratioP2;P2;SDS_P1;SDS_P2;PMS_P1;PMS_P2;Temp;Humidity;BMP_temperature;BMP_pressure;BME280_temperature;BME280_humidity;BME280_pressure;Samples;Min_cycle;Max_cycle;Signal;HPM_P1;HPM_P2
2023/01/17 00:01:14;;;;;;;8.18;2.10;;;;;;;;;;5028030;28;20072;-83
2023/01/17 00:11:55;;;;;;;3.60;1.80;;;;;;;;;;5021413;28;20037;-82
2023/01/17 00:14:21;;;;;;;6.43;2.30;;;;;;;;;;5026914;28;20041;-82
2023/01/17 00:16:47;;;;;;;5.80;2.25;;;;;;;;;;5017245;28;20053;-82
2023/01/17 01:34:05;;;;;;;4.82;1.60;;;;;;;;;;5036365;28;20045;-82
2023/01/17 01:36:31;;;;;;;6.10;1.77;;;;;;;;;;5050821;28;20091;-83
2023/01/17 01:38:57;;;;;;;6.10;2.25;;;;;;;;;;5036257;28;20045;-82
2023/01/17 01:41:23;;;;;;;6.40;1.70;;;;;;;;;;5012224;28;20045;-81
2023/01/17 01:43:50;;;;;;;6.80;1.75;;;;;;;;;;5035955;28;20076;-82
2023/01/17 01:46:22;;;;;;;7.85;2.33;;;;;;;;;;5041037;28;20029;-82
2023/01/17 01:48:56;;;;;;;6.97;2.10;;;;;;;;;;5037460;28;20041;-82
2023/01/17 01:51:27;;;;;;;6.10;1.92;;;;;;;;;;5042342;28;20069;-82
2023/01/17 01:53:55;;;;;;;2.92;1.77;;;;;;;;;;5018574;28;20401;-82
2023/01/17 01:56:22;;;;;;;3.28;1.42;;;;;;;;;;5021648;28;20045;-82
2023/01/17 01:58:49;;;;;;;5.82;1.85;;;;;;;;;;5034740;28;20104;-82
2023/01/17 02:01:16;;;;;;;4.57;1.92;;;;;;;;;;5029127;28;20473;-82
2023/01/17 02:03:42;;;;;;;4.88;1.70;;;;;;;;;;5034373;28;20041;-82
2023/01/17 02:06:27;;;;;;;6.32;2.13;;;;;;;;;;5036202;28;20037;-82
2023/01/17 02:08:54;;;;;;;11.18;2.20;;;;;;;;;;5024693;28;20096;-82
2023/01/17 02:11:20;;;;;;;7.15;1.88;;;;;;;;;;5025685;28;20041;-81
2023/01/17 02:13:46;;;;;;;1.95;1.50;;;;;;;;;;5023901;28;20274;-82
2023/01/17 02:16:18;;;;;;;5.30;1.90;;;;;;;;;;5026399;28;20493;-82
2023/01/17 02:19:04;;;;;;;11.32;2.30;;;;;;;;;;5023639;28;20517;-82
2023/01/17 02:21:36;;;;;;;6.63;2.13;;;;;;;;;;5024707;28;20053;-82
2023/01/17 02:24:21;;;;;;;6.65;1.88;;;;;;;;;;5043269;28;20047;-81
2023/01/17 02:26:47;;;;;;;9.48;2.17;;;;;;;;;;5054560;28;20069;-82
2023/01/17 02:29:13;;;;;;;9.75;2.42;;;;;;;;;;5021644;28;20121;-82
2023/01/17 02:31:46;;;;;;;5.15;2.22;;;;;;;;;;5020108;28;20132;-82
2023/01/17 02:34:16;;;;;;;4.22;1.90;;;;;;;;;;5030671;28;20091;-82
2023/01/17 02:36:50;;;;;;;5.60;1.80;;;;;;;;;;5032685;28;20046;-81
2023/01/17 02:39:16;;;;;;;;;;;;;;;;;;5026311;28;20406;-82
2023/01/17 02:41:44;;;;;;;7.10;1.73;;;;;;;;;;5032369;28;19921;-82
2023/01/17 02:44:11;;;;;;;2.10;1.35;;;;;;;;;;5029962;28;20103;-82
2023/01/17 02:46:47;;;;;;;9.15;1.92;;;;;;;;;;5035970;28;20386;-81
2023/01/17 02:49:14;;;;;;;5.85;2.13;;;;;;;;;;5059444;28;20046;-81
2023/01/17 02:51:46;;;;;;;9.25;2.35;;;;;;;;;;5041767;28;20085;-81
2023/01/17 02:54:12;;;;;;;7.38;2.13;;;;;;;;;;5054778;28;20481;-82
2023/01/17 02:56:44;;;;;;;10.07;2.55;;;;;;;;;;5033828;28;20072;-81
2023/01/17 02:59:29;;;;;;;8.10;2.08;;;;;;;;;;5030644;28;20516;-82
2023/01/17 03:02:06;;;;;;;6.32;2.00;;;;;;;;;;5015694;28;20436;-81
2023/01/17 03:04:38;;;;;;;5.10;1.95;;;;;;;;;;5049332;28;20124;-81
2023/01/17 03:07:08;;;;;;;4.80;2.00;;;;;;;;;;5028837;28;20044;-82
2023/01/17 03:09:34;;;;;;;6.65;1.80;;;;;;;;;;5023588;28;20072;-82
2023/01/17 03:12:01;;;;;;;5.30;1.80;;;;;;;;;;5018007;28;20140;-82
2023/01/17 03:14:29;;;;;;;4.25;1.73;;;;;;;;;;5022591;28;20053;-81
2023/01/17 03:16:55;;;;;;;1.65;1.50;;;;;;;;;;5019753;28;20038;-81
2023/01/17 03:19:21;;;;;;;4.93;1.60;;;;;;;;;;5022248;28;20061;-82
2023/01/17 03:21:48;;;;;;;7.72;1.90;;;;;;;;;;5018798;28;20034;-81
2023/01/17 03:24:15;;;;;;;6.43;1.60;;;;;;;;;;5019698;28;20057;-82
2023/01/17 03:26:43;;;;;;;4.95;1.60;;;;;;;;;;5021508;28;20091;-81
2023/01/17 03:29:09;;;;;;;5.03;1.60;;;;;;;;;;5022448;28;20045;-82
2023/01/17 03:31:42;;;;;;;6.15;1.67;;;;;;;;;;5022866;28;20044;-80
2023/01/17 03:34:08;;;;;;;2.53;1.60;;;;;;;;;;5020125;28;20172;-81
2023/01/17 03:36:34;;;;;;;8.02;1.70;;;;;;;;;;5020655;28;20405;-82
2023/01/17 03:39:01;;;;;;;5.32;1.65;;;;;;;;;;5027716;28;20063;-82
2023/01/17 03:41:27;;;;;;;8.50;1.70;;;;;;;;;;5022401;28;20129;-81
2023/01/17 03:43:53;;;;;;;8.18;1.90;;;;;;;;;;5030877;28;20049;-81
2023/01/17 03:46:23;;;;;;;5.75;1.90;;;;;;;;;;5026951;28;20091;-81
2023/01/17 03:48:49;;;;;;;4.05;1.42;;;;;;;;;;5029020;28;20038;-81
2023/01/17 03:51:15;;;;;;;4.68;1.70;;;;;;;;;;5024929;28;20041;-81
2023/01/17 03:53:42;;;;;;;3.55;1.65;;;;;;;;;;5043663;28;20091;-82
2023/01/17 03:56:08;;;;;;;5.18;1.73;;;;;;;;;;5037806;28;20052;-82
2023/01/17 03:58:34;;;;;;;7.00;2.10;;;;;;;;;;5051748;28;20452;-81
2023/01/17 04:01:00;;;;;;;7.10;2.13;;;;;;;;;;5031079;28;20068;-82
2023/01/17 04:03:26;;;;;;;3.15;1.90;;;;;;;;;;5019949;28;20069;-81
2023/01/17 04:05:55;;;;;;;5.63;1.90;;;;;;;;;;5025899;28;20046;-82
2023/01/17 04:08:21;;;;;;;2.08;1.40;;;;;;;;;;5031414;28;20064;-81
2023/01/17 04:10:47;;;;;;;2.50;1.60;;;;;;;;;;5038527;28;20504;-82
2023/01/17 04:13:13;;;;;;;3.92;1.70;;;;;;;;;;5038366;28;20037;-81
2023/01/17 04:15:39;;;;;;;4.25;1.50;;;;;;;;;;5032180;28;20052;-81
2023/01/17 04:18:06;;;;;;;2.40;1.55;;;;;;;;;;5030662;28;20061;-81
2023/01/17 04:20:36;;;;;;;6.72;1.67;;;;;;;;;;5032386;28;20124;-81
2023/01/17 04:23:02;;;;;;;6.80;1.90;;;;;;;;;;5014033;28;20486;-81
2023/01/17 04:25:29;;;;;;;6.65;1.60;;;;;;;;;;5020945;28;20049;-81
2023/01/17 04:27:56;;;;;;;1.92;1.27;;;;;;;;;;5024122;28;20046;-81
2023/01/17 04:30:22;;;;;;;5.43;1.52;;;;;;;;;;5022125;28;20052;-81
2023/01/17 04:32:48;;;;;;;2.75;1.45;;;;;;;;;;5023522;28;20445;-81
2023/01/17 04:35:14;;;;;;;3.15;1.70;;;;;;;;;;5029513;28;20460;-82
2023/01/17 04:37:40;;;;;;;5.40;1.75;;;;;;;;;;5026895;28;20064;-81
2023/01/17 04:40:10;;;;;;;2.92;1.60;;;;;;;;;;5002086;28;20037;-81
2023/01/17 04:42:36;;;;;;;4.75;1.58;;;;;;;;;;5060956;28;20048;-81
2023/01/17 04:45:02;;;;;;;9.30;1.70;;;;;;;;;;5023471;28;20038;-81
2023/01/17 04:47:28;;;;;;;5.30;1.80;;;;;;;;;;5020587;28;20466;-81
2023/01/17 04:49:54;;;;;;;4.85;2.05;;;;;;;;;;5020589;28;20081;-81
2023/01/17 04:52:20;;;;;;;2.72;1.60;;;;;;;;;;5016587;28;20037;-81
2023/01/17 04:54:50;;;;;;;4.00;1.40;;;;;;;;;;5017772;28;20073;-81
2023/01/17 04:57:16;;;;;;;5.80;1.60;;;;;;;;;;5017230;28;20187;-81
2023/01/17 04:59:43;;;;;;;4.57;2.05;;;;;;;;;;5018791;28;20046;-81
2023/01/17 05:02:09;;;;;;;6.90;1.85;;;;;;;;;;5049574;28;20064;-81
2023/01/17 05:04:35;;;;;;;7.95;2.28;;;;;;;;;;5050188;28;20409;-81
2023/01/17 05:07:01;;;;;;;5.53;2.63;;;;;;;;;;5021872;28;20045;-81
2023/01/17 05:09:27;;;;;;;3.25;1.52;;;;;;;;;;5016933;28;20045;-81
2023/01/17 05:11:54;;;;;;;4.40;1.52;;;;;;;;;;5016552;28;20038;-81
2023/01/17 05:14:20;;;;;;;3.75;1.63;;;;;;;;;;5020282;28;20081;-81
2023/01/17 05:16:47;;;;;;;4.50;1.65;;;;;;;;;;5024661;28;20117;-81
2023/01/17 05:19:13;;;;;;;4.72;1.92;;;;;;;;;;5018400;28;20054;-80
2023/01/17 05:21:39;;;;;;;6.80;1.70;;;;;;;;;;5023756;28;20064;-81
2023/01/17 05:24:05;;;;;;;4.03;1.70;;;;;;;;;;5025218;28;20041;-81
2023/01/17 05:26:31;;;;;;;6.18;1.73;;;;;;;;;;5019121;28;20038;-81
2023/01/17 05:28:57;;;;;;;5.03;1.80;;;;;;;;;;5025374;28;20084;-80
2023/01/17 05:31:23;;;;;;;8.35;2.20;;;;;;;;;;5023509;28;20042;-81
2023/01/17 05:33:49;;;;;;;7.55;2.00;;;;;;;;;;5019335;28;20486;-81
2023/01/17 05:36:15;;;;;;;4.35;1.67;;;;;;;;;;5013124;28;20070;-81
2023/01/17 05:38:41;;;;;;;5.47;1.70;;;;;;;;;;5022561;28;20053;-81
2023/01/17 05:41:07;;;;;;;2.95;1.80;;;;;;;;;;5025309;28;20128;-81
2023/01/17 05:43:33;;;;;;;3.63;1.42;;;;;;;;;;5021855;28;20053;-81
2023/01/17 05:45:59;;;;;;;4.13;1.55;;;;;;;;;;5022314;28;20052;-81
2023/01/17 05:48:25;;;;;;;2.65;1.50;;;;;;;;;;5022015;28;20136;-81
2023/01/17 05:50:51;;;;;;;4.53;1.80;;;;;;;;;;5018536;28;20489;-80
2023/01/17 05:53:17;;;;;;;2.97;1.50;;;;;;;;;;5024114;28;21725;-80
2023/01/17 05:55:43;;;;;;;2.33;1.30;;;;;;;;;;5039413;28;20037;-81
2023/01/17 05:58:14;;;;;;;7.35;1.95;;;;;;;;;;5029200;28;20060;-81
2023/01/17 06:00:40;;;;;;;5.43;1.73;;;;;;;;;;5032088;28;20042;-81
2023/01/17 06:03:06;;;;;;;4.88;2.00;;;;;;;;;;5034444;28;20040;-81
2023/01/17 06:05:32;;;;;;;4.18;1.60;;;;;;;;;;5029310;28;20041;-81
2023/01/17 06:07:58;;;;;;;4.40;1.60;;;;;;;;;;5020889;28;20037;-81
2023/01/17 06:10:25;;;;;;;3.17;1.80;;;;;;;;;;5053317;28;20049;-81
2023/01/17 06:13:00;;;;;;;2.85;1.42;;;;;;;;;;5030793;28;20528;-81
2023/01/17 06:15:26;;;;;;;4.75;1.60;;;;;;;;;;5025380;28;20049;-81
2023/01/17 06:17:52;;;;;;;3.53;1.50;;;;;;;;;;5025573;28;20058;-80
2023/01/17 06:20:18;;;;;;;3.20;1.88;;;;;;;;;;5020363;28;20547;-80
2023/01/17 06:22:44;;;;;;;4.45;1.70;;;;;;;;;;5019391;28;20045;-81
2023/01/17 06:25:10;;;;;;;4.45;2.03;;;;;;;;;;5018708;28;20057;-81
2023/01/17 06:27:36;;;;;;;7.68;1.65;;;;;;;;;;5022088;28;20139;-81
2023/01/17 06:30:02;;;;;;;4.07;1.90;;;;;;;;;;5020420;28;20075;-81
2023/01/17 06:32:28;;;;;;;3.40;1.60;;;;;;;;;;5019796;28;20042;-82
2023/01/17 06:34:54;;;;;;;4.22;1.60;;;;;;;;;;5028194;28;20080;-82
2023/01/17 06:37:20;;;;;;;4.00;1.80;;;;;;;;;;5017855;28;20041;-81
2023/01/17 06:39:46;;;;;;;5.20;1.80;;;;;;;;;;5027228;28;20049;-84
2023/01/17 06:42:12;;;;;;;3.92;1.52;;;;;;;;;;5026464;28;20052;-84
2023/01/17 06:44:38;;;;;;;4.43;1.52;;;;;;;;;;5033283;28;20405;-82
2023/01/17 06:47:04;;;;;;;2.88;1.60;;;;;;;;;;5011793;28;20046;-83
2023/01/17 06:49:30;;;;;;;5.85;1.90;;;;;;;;;;5031256;28;20045;-82
2023/01/17 06:51:56;;;;;;;1.77;1.45;;;;;;;;;;5029035;28;20276;-82
2023/01/17 06:54:22;;;;;;;1.73;1.50;;;;;;;;;;5034968;28;20054;-80
2023/01/17 06:56:51;;;;;;;2.97;1.63;;;;;;;;;;5035515;28;20045;-82
2023/01/17 06:59:17;;;;;;;3.00;1.73;;;;;;;;;;5038159;28;20044;-81
2023/01/17 07:01:43;;;;;;;1.80;1.67;;;;;;;;;;5036996;28;20037;-81
2023/01/17 07:04:09;;;;;;;7.88;1.70;;;;;;;;;;5042082;28;20042;-81
2023/01/17 07:06:35;;;;;;;1.70;1.60;;;;;;;;;;5020890;28;20041;-81
2023/01/17 07:09:02;;;;;;;3.67;1.80;;;;;;;;;;5017728;28;20140;-81
2023/01/17 07:11:28;;;;;;;3.13;1.60;;;;;;;;;;5021398;28;20056;-81
2023/01/17 07:13:54;;;;;;;2.08;1.52;;;;;;;;;;5028552;28;20051;-81
2023/01/17 07:16:20;;;;;;;1.77;1.50;;;;;;;;;;5024604;28;20045;-81
2023/01/17 07:18:47;;;;;;;2.95;1.70;;;;;;;;;;5026811;28;20057;-83
2023/01/17 07:21:14;;;;;;;3.55;1.75;;;;;;;;;;5018683;28;20042;-81
2023/01/17 07:23:40;;;;;;;6.70;1.98;;;;;;;;;;5023376;28;20037;-81
2023/01/17 07:26:06;;;;;;;1.98;1.50;;;;;;;;;;5013878;28;20046;-81
2023/01/17 07:28:32;;;;;;;5.18;1.60;;;;;;;;;;5024298;28;20049;-81
2023/01/17 07:30:58;;;;;;;3.65;1.70;;;;;;;;;;5020515;28;20128;-81
2023/01/17 07:33:24;;;;;;;3.50;1.83;;;;;;;;;;5029334;28;20053;-81
2023/01/17 07:35:50;;;;;;;3.00;1.60;;;;;;;;;;5027607;28;20041;-81
2023/01/17 07:38:17;;;;;;;2.80;1.70;;;;;;;;;;5026818;28;20052;-81
2023/01/17 07:40:43;;;;;;;3.13;1.50;;;;;;;;;;5030530;28;20052;-81
2023/01/17 07:43:13;;;;;;;4.40;1.60;;;;;;;;;;5029031;28;20041;-81
2023/01/17 07:45:48;;;;;;;4.28;1.60;;;;;;;;;;5025980;28;20157;-81
2023/01/17 07:48:14;;;;;;;5.57;2.15;;;;;;;;;;5026823;28;20080;-81
2023/01/17 07:50:40;;;;;;;6.65;2.10;;;;;;;;;;5029822;28;20041;-81
2023/01/17 07:53:06;;;;;;;9.15;2.13;;;;;;;;;;5040883;28;20049;-82
2023/01/17 07:55:32;;;;;;;2.67;1.60;;;;;;;;;;5032100;28;20081;-81
2023/01/17 07:57:58;;;;;;;9.77;2.00;;;;;;;;;;5029970;28;20073;-81
2023/01/17 08:00:26;;;;;;;4.95;1.77;;;;;;;;;;5028261;28;20041;-81
2023/01/17 08:02:59;;;;;;;6.88;1.90;;;;;;;;;;5016544;28;20132;-80
2023/01/17 08:05:25;;;;;;;;;;;;;;;;;;5029975;28;20046;-81
2023/01/17 08:07:52;;;;;;;4.95;2.05;;;;;;;;;;5025549;28;19928;-80
2023/01/17 08:10:18;;;;;;;5.05;1.77;;;;;;;;;;5020896;28;20053;-81
2023/01/17 08:12:45;;;;;;;5.93;1.70;;;;;;;;;;5013540;28;20064;-80
2023/01/17 08:15:11;;;;;;;5.32;3.45;;;;;;;;;;5012691;28;20064;-80
2023/01/17 08:17:38;;;;;;;5.07;2.22;;;;;;;;;;5012045;28;20410;-80
2023/01/17 08:20:05;;;;;;;4.47;1.80;;;;;;;;;;5015857;28;20049;-81
2023/01/17 08:22:31;;;;;;;6.35;2.05;;;;;;;;;;5023155;28;20505;-80
2023/01/17 08:24:57;;;;;;;4.57;2.13;;;;;;;;;;5016410;28;20057;-80
2023/01/17 08:27:23;;;;;;;6.90;2.08;;;;;;;;;;5022400;28;20046;-81
2023/01/17 08:29:50;;;;;;;3.83;2.00;;;;;;;;;;5029862;28;20052;-81
2023/01/17 08:32:17;;;;;;;3.70;1.80;;;;;;;;;;5020595;28;20037;-81
2023/01/17 08:34:43;;;;;;;5.35;2.20;;;;;;;;;;5024086;28;20137;-81
2023/01/17 08:37:09;;;;;;;6.28;2.00;;;;;;;;;;5017417;28;20464;-81
2023/01/17 08:39:35;;;;;;;4.93;1.80;;;;;;;;;;5016030;28;20051;-81
2023/01/17 08:42:01;;;;;;;5.22;1.70;;;;;;;;;;5022596;28;20049;-81
2023/01/17 08:44:27;;;;;;;2.60;1.55;;;;;;;;;;5014493;28;20053;-81
2023/01/17 08:46:53;;;;;;;5.35;1.50;;;;;;;;;;5025237;28;20076;-80
2023/01/17 08:49:19;;;;;;;5.45;1.70;;;;;;;;;;5016000;28;20120;-80
2023/01/17 08:51:45;;;;;;;2.35;1.60;;;;;;;;;;5019579;28;20053;-80
2023/01/17 08:54:13;;;;;;;1.30;1.30;;;;;;;;;;5029440;28;20064;-81
2023/01/17 08:56:41;;;;;;;2.03;1.50;;;;;;;;;;5024521;28;20081;-81
2023/01/17 08:59:09;;;;;;;1.80;1.50;;;;;;;;;;5025953;28;20053;-81
2023/01/17 09:01:39;;;;;;;2.72;1.50;;;;;;;;;;5022440;28;20041;-81
2023/01/17 09:04:06;;;;;;;3.97;1.55;;;;;;;;;;5019752;28;20057;-81
2023/01/17 09:06:32;;;;;;;4.13;1.90;;;;;;;;;;5025076;28;20052;-81
2023/01/17 09:08:58;;;;;;;2.47;1.50;;;;;;;;;;5021590;28;20129;-81
2023/01/17 09:11:24;;;;;;;7.18;1.50;;;;;;;;;;5020626;28;20581;-80
2023/01/17 09:13:50;;;;;;;4.78;1.50;;;;;;;;;;5019774;28;20124;-81
2023/01/17 09:16:16;;;;;;;1.60;1.50;;;;;;;;;;5020864;28;20502;-81
2023/01/17 09:18:42;;;;;;;1.83;1.60;;;;;;;;;;5020157;28;20083;-81
2023/01/17 09:21:09;;;;;;;3.13;1.50;;;;;;;;;;5004321;28;20087;-81
2023/01/17 09:23:35;;;;;;;1.80;1.33;;;;;;;;;;5028727;28;20140;-81
2023/01/17 09:26:01;;;;;;;3.60;1.55;;;;;;;;;;5023392;28;20046;-82
2023/01/17 09:28:27;;;;;;;1.55;1.33;;;;;;;;;;5007998;28;20046;-81
2023/01/17 09:30:54;;;;;;;3.17;1.48;;;;;;;;;;5015498;28;20045;-81
2023/01/17 09:33:20;;;;;;;4.38;1.55;;;;;;;;;;5019890;28;20041;-81
2023/01/17 09:35:46;;;;;;;3.92;1.58;;;;;;;;;;5026227;28;20038;-81
2023/01/17 09:38:13;;;;;;;2.75;1.52;;;;;;;;;;5025977;28;20489;-81
2023/01/17 09:40:43;;;;;;;1.95;1.38;;;;;;;;;;5023537;28;20127;-81
2023/01/17 09:43:16;;;;;;;2.85;1.50;;;;;;;;;;5018403;28;20049;-81
2023/01/17 09:45:42;;;;;;;1.83;1.45;;;;;;;;;;5032581;28;20406;-81
2023/01/17 09:48:13;;;;;;;5.88;1.60;;;;;;;;;;5006064;28;20536;-82
2023/01/17 09:50:39;;;;;;;2.85;1.75;;;;;;;;;;5029333;28;20543;-81
2023/01/17 09:53:06;;;;;;;1.80;1.40;;;;;;;;;;5022641;28;20041;-81
2023/01/17 09:55:51;;;;;;;2.78;1.40;;;;;;;;;;5035050;28;20049;-81
2023/01/17 09:58:20;;;;;;;4.47;2.00;;;;;;;;;;5017184;28;20046;-81
2023/01/17 10:00:46;;;;;;;2.78;1.73;;;;;;;;;;5014689;28;20050;-81
2023/01/17 10:03:31;;;;;;;6.88;1.67;;;;;;;;;;5026004;28;20438;-81
2023/01/17 10:06:15;;;;;;;5.35;1.70;;;;;;;;;;5019752;28;20077;-80
2023/01/17 10:08:47;;;;;;;3.13;1.50;;;;;;;;;;5017967;28;20049;-80
2023/01/17 10:11:25;;;;;;;3.95;1.58;;;;;;;;;;5027256;28;20060;-82
2023/01/17 10:13:56;;;;;;;4.40;1.55;;;;;;;;;;5029900;28;20034;-81
2023/01/17 10:16:43;;;;;;;3.55;1.50;;;;;;;;;;5021844;28;20482;-81
2023/01/17 10:19:18;;;;;;;1.88;1.30;;;;;;;;;;5027835;28;20554;-81
2023/01/17 10:22:03;;;;;;;3.92;1.50;;;;;;;;;;5025349;28;20057;-81
2023/01/17 10:24:50;;;;;;;3.33;1.70;;;;;;;;;;5022348;28;20053;-81
2023/01/17 10:27:28;;;;;;;1.33;1.20;;;;;;;;;;5023147;28;20064;-81
2023/01/17 10:29:54;;;;;;;3.33;1.48;;;;;;;;;;5048529;28;20036;-81
2023/01/17 10:32:23;;;;;;;2.60;1.50;;;;;;;;;;5021319;28;20050;-81
2023/01/17 10:34:53;;;;;;;3.85;1.75;;;;;;;;;;5023050;28;20041;-81
2023/01/17 10:37:19;;;;;;;3.53;1.75;;;;;;;;;;5022960;28;20049;-81
2023/01/17 10:39:46;;;;;;;2.83;1.70;;;;;;;;;;5019718;28;20061;-81
2023/01/17 10:42:16;;;;;;;7.18;1.50;;;;;;;;;;5028247;28;20070;-81
2023/01/17 10:45:14;;;;;;;2.92;1.63;;;;;;;;;;5023169;28;20045;-81
2023/01/17 10:47:41;;;;;;;3.30;1.92;;;;;;;;;;4998545;28;20041;-80
2023/01/17 10:50:11;;;;;;;5.25;1.75;;;;;;;;;;5018995;28;20432;-81
2023/01/17 10:52:52;;;;;;;2.97;1.55;;;;;;;;;;5023515;28;20492;-81
2023/01/17 10:55:37;;;;;;;3.05;1.85;;;;;;;;;;5024125;28;20099;-80
2023/01/17 10:58:04;;;;;;;6.97;1.95;;;;;;;;;;5031785;28;20048;-81
2023/01/17 11:00:49;;;;;;;7.40;2.17;;;;;;;;;;5019167;28;20148;-81
2023/01/17 11:03:16;;;;;;;4.43;1.60;;;;;;;;;;5021881;28;20049;-82
2023/01/17 11:05:43;;;;;;;3.58;1.75;;;;;;;;;;5020238;28;20493;-82
2023/01/17 11:08:10;;;;;;;4.68;1.67;;;;;;;;;;5017703;28;20044;-81
2023/01/17 11:10:38;;;;;;;3.22;1.63;;;;;;;;;;5022909;28;20049;-82
2023/01/17 11:13:31;;;;;;;2.45;1.50;;;;;;;;;;5023081;28;20512;-81
2023/01/17 11:15:59;;;;;;;4.53;1.80;;;;;;;;;;5017466;28;20058;-81
2023/01/17 11:18:28;;;;;;;2.85;1.60;;;;;;;;;;5030211;28;20057;-81
2023/01/17 11:21:10;;;;;;;1.95;1.30;;;;;;;;;;5022671;28;20041;-80
2023/01/17 11:23:46;;;;;;;2.75;1.88;;;;;;;;;;5027689;28;20072;-81
2023/01/17 11:26:22;;;;;;;3.45;1.80;;;;;;;;;;5024712;28;20084;-81
2023/01/17 11:28:48;;;;;;;5.10;1.90;;;;;;;;;;5024169;28;20163;-81
2023/01/17 11:31:15;;;;;;;6.18;1.80;;;;;;;;;;5003404;28;20153;-82
2023/01/17 11:33:46;;;;;;;5.82;1.90;;;;;;;;;;5018513;28;20045;-82
2023/01/17 11:36:27;;;;;;;2.78;1.58;;;;;;;;;;5024124;28;20389;-83
2023/01/17 11:39:04;;;;;;;2.58;1.60;;;;;;;;;;5029037;28;20046;-83
2023/01/17 11:41:40;;;;;;;3.70;1.70;;;;;;;;;;5019328;28;20087;-84
2023/01/17 11:44:25;;;;;;;3.13;1.63;;;;;;;;;;5022352;28;20053;-83
2023/01/17 11:47:08;;;;;;;2.95;1.92;;;;;;;;;;5054332;28;20099;-81
2023/01/17 11:49:34;;;;;;;4.40;1.67;;;;;;;;;;5028475;28;20397;-81
2023/01/17 11:52:02;;;;;;;1.60;1.50;;;;;;;;;;5015758;28;20048;-81
2023/01/17 11:54:38;;;;;;;1.60;1.50;;;;;;;;;;5030566;28;20079;-81
2023/01/17 11:57:05;;;;;;;1.67;1.55;;;;;;;;;;5029640;28;20053;-81
2023/01/17 11:59:38;;;;;;;4.68;1.77;;;;;;;;;;5017413;28;20085;-81
2023/01/17 12:02:23;;;;;;;4.55;2.08;;;;;;;;;;5024447;28;20042;-81
2023/01/17 12:05:00;;;;;;;3.42;1.80;;;;;;;;;;5032639;28;20052;-83
2023/01/17 12:07:33;;;;;;;3.25;1.80;;;;;;;;;;5022950;28;20045;-81
2023/01/17 12:09:59;;;;;;;2.70;1.70;;;;;;;;;;5028074;28;20384;-80
2023/01/17 12:15:09;;;;;;;4.07;1.63;;;;;;;;;;5018033;28;20124;-80
2023/01/17 12:17:49;;;;;;;2.67;1.85;;;;;;;;;;5026313;28;20172;-80
2023/01/17 12:20:27;;;;;;;2.47;1.60;;;;;;;;;;5030475;28;20459;-80
2023/01/17 12:22:56;;;;;;;3.63;1.95;;;;;;;;;;5018825;28;20144;-80
2023/01/17 12:25:36;;;;;;;3.53;1.73;;;;;;;;;;5004190;28;20073;-81
2023/01/17 12:28:02;;;;;;;1.80;1.70;;;;;;;;;;5020220;28;20490;-80
2023/01/17 12:30:29;;;;;;;2.15;1.65;;;;;;;;;;5022722;28;20076;-80
2023/01/17 12:33:18;;;;;;;1.95;1.40;;;;;;;;;;5027634;28;20088;-80
2023/01/17 12:35:55;;;;;;;3.25;1.80;;;;;;;;;;5024352;28;20041;-79
2023/01/17 12:38:34;;;;;;;2.47;1.80;;;;;;;;;;5017355;28;20068;-81
2023/01/17 12:41:04;;;;;;;2.58;1.60;;;;;;;;;;5021127;28;20497;-80
2023/01/17 12:43:36;;;;;;;4.43;1.90;;;;;;;;;;5026379;28;20384;-77
2023/01/17 12:46:07;;;;;;;4.55;1.92;;;;;;;;;;5026322;28;20046;-82
2023/01/17 12:48:38;;;;;;;8.48;1.70;;;;;;;;;;5024345;28;20096;-82
2023/01/17 12:51:04;;;;;;;2.22;1.50;;;;;;;;;;5021641;28;20053;-82
2023/01/17 12:53:50;;;;;;;1.73;1.42;;;;;;;;;;5023134;28;20076;-82
2023/01/17 12:56:31;;;;;;;1.67;1.38;;;;;;;;;;5023642;28;20067;-83
2023/01/17 12:59:05;;;;;;;1.90;1.70;;;;;;;;;;5021375;28;20041;-83
2023/01/17 13:01:41;;;;;;;5.78;1.80;;;;;;;;;;5024342;28;20057;-82
2023/01/17 13:04:27;;;;;;;2.17;1.60;;;;;;;;;;5013965;28;20140;-82
2023/01/17 13:07:13;;;;;;;4.68;1.75;;;;;;;;;;5014380;28;20095;-83
2023/01/17 13:09:44;;;;;;;2.55;1.50;;;;;;;;;;5017271;28;20111;-83
2023/01/17 13:12:13;;;;;;;2.50;1.63;;;;;;;;;;5021974;28;20049;-83
2023/01/17 13:14:39;;;;;;;2.58;1.77;;;;;;;;;;5011878;28;20128;-83
2023/01/17 13:17:11;;;;;;;1.60;1.50;;;;;;;;;;5014007;28;20050;-82
2023/01/17 13:19:46;;;;;;;3.53;1.90;;;;;;;;;;5015717;28;20041;-84
2023/01/17 13:22:18;;;;;;;4.03;1.60;;;;;;;;;;5027594;28;20076;-84
2023/01/17 13:24:44;;;;;;;3.70;1.83;;;;;;;;;;5021822;28;20049;-83
2023/01/17 13:27:16;;;;;;;5.45;2.05;;;;;;;;;;5018136;28;20060;-83
2023/01/17 13:30:10;;;;;;;2.25;1.60;;;;;;;;;;5034823;28;20046;-81
2023/01/17 13:32:36;;;;;;;2.85;1.83;;;;;;;;;;5030680;28;20124;-83
2023/01/17 13:35:02;;;;;;;2.13;1.80;;;;;;;;;;5015032;28;20152;-83
2023/01/17 13:37:47;;;;;;;3.03;1.80;;;;;;;;;;5017295;28;20544;-85
2023/01/17 13:40:23;;;;;;;2.17;1.70;;;;;;;;;;5019762;28;20084;-84
2023/01/17 13:42:55;;;;;;;3.08;1.63;;;;;;;;;;5026605;28;20045;-83
2023/01/17 13:45:26;;;;;;;3.95;1.83;;;;;;;;;;5041323;28;20046;-83
2023/01/17 13:47:53;;;;;;;4.03;1.60;;;;;;;;;;5019625;28;20041;-83
2023/01/17 13:50:37;;;;;;;2.72;1.60;;;;;;;;;;5022134;28;20050;-83
2023/01/17 13:53:24;;;;;;;4.15;1.48;;;;;;;;;;5025286;28;20042;-83
2023/01/17 13:55:52;;;;;;;4.05;1.70;;;;;;;;;;5010652;28;20256;-83
2023/01/17 13:58:28;;;;;;;5.82;1.65;;;;;;;;;;5012501;28;20057;-84
2023/01/17 14:00:54;;;;;;;4.25;1.92;;;;;;;;;;5020903;28;20052;-84
2023/01/17 14:03:38;;;;;;;3.33;1.50;;;;;;;;;;5029601;28;20041;-83
2023/01/17 14:06:24;;;;;;;2.40;1.50;;;;;;;;;;5030140;28;20042;-84
2023/01/17 14:08:51;;;;;;;4.15;1.75;;;;;;;;;;5014851;28;20046;-83
2023/01/17 14:11:18;;;;;;;5.32;2.05;;;;;;;;;;5013950;28;20048;-83
2023/01/17 14:13:44;;;;;;;3.67;1.70;;;;;;;;;;5029765;28;20048;-84
2023/01/17 14:16:27;;;;;;;1.85;1.60;;;;;;;;;;5032390;28;20089;-83
2023/01/17 14:18:54;;;;;;;2.15;1.75;;;;;;;;;;5031791;28;20485;-83
2023/01/17 14:21:20;;;;;;;1.95;1.40;;;;;;;;;;5027193;28;20049;-83
2023/01/17 14:23:47;;;;;;;5.20;1.60;;;;;;;;;;5021973;28;20084;-84
2023/01/17 14:26:19;;;;;;;2.40;1.50;;;;;;;;;;5024915;28;20432;-83
2023/01/17 14:28:45;;;;;;;3.38;1.80;;;;;;;;;;5022092;28;20038;-83
2023/01/17 14:31:12;;;;;;;5.80;1.75;;;;;;;;;;5022552;28;20427;-83
2023/01/17 14:33:39;;;;;;;6.43;1.60;;;;;;;;;;5025167;28;20124;-83
2023/01/17 14:36:07;;;;;;;6.45;1.70;;;;;;;;;;5021161;28;20048;-83
2023/01/17 14:38:33;;;;;;;1.65;1.50;;;;;;;;;;5020209;28;20404;-84
2023/01/17 14:41:02;;;;;;;1.70;1.58;;;;;;;;;;5022883;28;20046;-84
2023/01/17 14:43:31;;;;;;;6.68;1.90;;;;;;;;;;5022974;28;20505;-83
2023/01/17 14:46:18;;;;;;;3.10;1.50;;;;;;;;;;5006018;28;20053;-83
2023/01/17 14:48:44;;;;;;;5.15;1.75;;;;;;;;;;5015336;28;20053;-83
2023/01/17 14:51:21;;;;;;;3.30;1.65;;;;;;;;;;5017479;28;20357;-83
2023/01/17 14:54:01;;;;;;;2.80;1.50;;;;;;;;;;5021172;28;20316;-83
2023/01/17 14:56:28;;;;;;;5.72;1.80;;;;;;;;;;5010732;28;20129;-82
2023/01/17 14:59:04;;;;;;;3.13;1.67;;;;;;;;;;5031842;28;20049;-85
2023/01/17 15:01:31;;;;;;;4.57;1.85;;;;;;;;;;5038660;28;20410;-85
2023/01/17 15:03:57;;;;;;;1.85;1.70;;;;;;;;;;5033643;28;20053;-89
2023/01/17 15:06:32;;;;;;;3.42;1.80;;;;;;;;;;5040776;28;20041;-87
2023/01/17 15:09:02;;;;;;;2.85;1.50;;;;;;;;;;5059315;28;20145;-86
2023/01/17 15:11:31;;;;;;;2.90;1.40;;;;;;;;;;5055597;28;20041;-90
2023/01/17 15:13:58;;;;;;;5.07;1.90;;;;;;;;;;5031205;28;20053;-89
2023/01/17 15:16:26;;;;;;;4.40;1.70;;;;;;;;;;5048484;28;20045;-88
2023/01/17 15:18:53;;;;;;;6.43;1.90;;;;;;;;;;5038686;28;20946;-87
2023/01/17 15:21:23;;;;;;;6.05;1.98;;;;;;;;;;5016696;28;20084;-90
2023/01/17 15:24:09;;;;;;;4.55;1.70;;;;;;;;;;5029673;28;20057;-85
2023/01/17 15:26:41;;;;;;;4.53;1.67;;;;;;;;;;5036490;28;20528;-84
2023/01/17 15:29:14;;;;;;;4.63;1.77;;;;;;;;;;5015451;28;20046;-92
2023/01/17 15:31:45;;;;;;;4.90;1.92;;;;;;;;;;5059645;28;20456;-90
2023/01/17 15:34:22;;;;;;;1.90;1.65;;;;;;;;;;5027023;28;20204;-88
2023/01/17 15:36:48;;;;;;;4.45;1.60;;;;;;;;;;5015833;28;20049;-83
2023/01/17 15:39:22;;;;;;;4.28;1.75;;;;;;;;;;5024102;28;20048;-82
2023/01/17 15:41:51;;;;;;;4.88;1.67;;;;;;;;;;5022376;28;20038;-82
2023/01/17 15:44:23;;;;;;;5.68;1.70;;;;;;;;;;5034056;28;20053;-81
2023/01/17 15:46:49;;;;;;;2.40;1.73;;;;;;;;;;5024534;28;20073;-80
2023/01/17 15:49:24;;;;;;;3.97;1.98;;;;;;;;;;5020560;28;20146;-81
2023/01/17 15:51:55;;;;;;;4.90;2.05;;;;;;;;;;5023025;28;20041;-82
2023/01/17 15:54:36;;;;;;;3.13;1.80;;;;;;;;;;5029598;28;20048;-81
2023/01/17 15:57:05;;;;;;;2.50;1.65;;;;;;;;;;5028823;28;20033;-81
2023/01/17 15:59:34;;;;;;;2.97;1.88;;;;;;;;;;5027632;28;20049;-82
2023/01/17 16:02:00;;;;;;;2.95;1.73;;;;;;;;;;5021995;28;20397;-81
2023/01/17 16:04:35;;;;;;;2.17;1.80;;;;;;;;;;5021676;28;20060;-81
2023/01/17 16:07:18;;;;;;;5.45;1.73;;;;;;;;;;5021056;28;20050;-82
2023/01/17 16:09:44;;;;;;;3.10;1.75;;;;;;;;;;5021531;28;20049;-81
2023/01/17 16:12:11;;;;;;;3.92;1.88;;;;;;;;;;5035140;28;20041;-82
2023/01/17 16:14:37;;;;;;;4.60;2.00;;;;;;;;;;5026838;28;20093;-81
2023/01/17 16:17:04;;;;;;;2.28;1.52;;;;;;;;;;5038668;28;20049;-83
2023/01/17 16:19:31;;;;;;;4.32;2.05;;;;;;;;;;5035641;28;20057;-88
2023/01/17 16:22:01;;;;;;;3.60;1.90;;;;;;;;;;5025318;28;20083;-79
2023/01/17 16:24:27;;;;;;;2.35;1.80;;;;;;;;;;5042909;28;20513;-78